sensor_id;sensor_type;location;lat;lon;timestamp;pressure;altitude;pressure_sealevel;temperature;humidity
77086;BME280;66014;53.134;18.006;2023-02-01T00:00:27;99801.33;;;2.99;80.09
77086;BME280;66014;53.134;18.006;2023-02-01T00:03:14;99797.30;;;3.03;79.88
77086;BME280;66014;53.134;18.006;2023-02-01T00:05:41;99801.70;;;3.06;79.76
77086;BME280;66014;53.134;18.006;2023-02-01T00:08:08;99805.28;;;3.10;79.51
77086;BME280;66014;53.134;18.006;2023-02-01T00:10:35;99811.04;;;3.14;79.39
77086;BME280;66014;53.134;18.006;2023-02-01T00:13:01;99810.70;;;3.17;79.11
77086;BME280;66014;53.134;18.006;2023-02-01T00:15:28;99812.81;;;3.21;79.33
77086;BME280;66014;53.134;18.006;2023-02-01T00:17:55;99815.90;;;3.23;79.30
77086;BME280;66014;53.134;18.006;2023-02-01T00:20:21;99814.05;;;3.26;79.02
77086;BME280;66014;53.134;18.006;2023-02-01T00:22:48;99817.84;;;3.27;79.08
77086;BME280;66014;53.134;18.006;2023-02-01T00:25:14;99814.75;;;3.24;78.79
77086;BME280;66014;53.134;18.006;2023-02-01T00:27:41;99814.86;;;3.25;78.93
77086;BME280;66014;53.134;18.006;2023-02-01T00:30:08;99819.88;;;3.24;78.84
77086;BME280;66014;53.134;18.006;2023-02-01T00:32:35;99826.22;;;3.24;78.62
77086;BME280;66014;53.134;18.006;2023-02-01T00:35:01;99823.77;;;3.23;78.90
77086;BME280;66014;53.134;18.006;2023-02-01T00:37:28;99828.85;;;3.24;79.09
77086;BME280;66014;53.134;18.006;2023-02-01T00:39:54;99835.23;;;3.25;78.90
77086;BME280;66014;53.134;18.006;2023-02-01T00:42:22;99839.55;;;3.25;79.18
77086;BME280;66014;53.134;18.006;2023-02-01T00:44:48;99842.11;;;3.26;79.12
77086;BME280;66014;53.134;18.006;2023-02-01T00:47:15;99841.14;;;3.27;79.09
77086;BME280;66014;53.134;18.006;2023-02-01T00:49:41;99841.33;;;3.29;79.33
77086;BME280;66014;53.134;18.006;2023-02-01T00:52:09;99838.75;;;3.28;79.49
77086;BME280;66014;53.134;18.006;2023-02-01T00:54:35;99842.98;;;3.28;79.53
77086;BME280;66014;53.134;18.006;2023-02-01T00:57:03;99837.67;;;3.25;79.91
77086;BME280;66014;53.134;18.006;2023-02-01T00:59:30;99845.40;;;3.23;80.08
77086;BME280;66014;53.134;18.006;2023-02-01T01:01:56;99844.95;;;3.20;80.11
77086;BME280;66014;53.134;18.006;2023-02-01T01:04:23;99846.13;;;3.17;80.54
77086;BME280;66014;53.134;18.006;2023-02-01T01:06:49;99846.86;;;3.13;80.67
77086;BME280;66014;53.134;18.006;2023-02-01T01:09:16;99849.09;;;3.10;80.73
77086;BME280;66014;53.134;18.006;2023-02-01T01:11:42;99847.00;;;3.08;80.78
77086;BME280;66014;53.134;18.006;2023-02-01T01:14:09;99846.93;;;3.07;80.88
77086;BME280;66014;53.134;18.006;2023-02-01T01:16:36;99849.11;;;3.07;81.08
77086;BME280;66014;53.134;18.006;2023-02-01T01:19:02;99846.19;;;3.06;81.29
77086;BME280;66014;53.134;18.006;2023-02-01T01:21:29;99848.13;;;3.06;81.19
77086;BME280;66014;53.134;18.006;2023-02-01T01:23:57;99846.24;;;3.07;81.31
77086;BME280;66014;53.134;18.006;2023-02-01T01:26:28;99845.96;;;3.09;81.27
77086;BME280;66014;53.134;18.006;2023-02-01T01:28:56;99850.51;;;3.10;81.13
77086;BME280;66014;53.134;18.006;2023-02-01T01:31:25;99853.67;;;3.12;81.49
77086;BME280;66014;53.134;18.006;2023-02-01T01:33:54;99850.72;;;3.14;81.30
77086;BME280;66014;53.134;18.006;2023-02-01T01:36:22;99849.94;;;3.14;81.47
77086;BME280;66014;53.134;18.006;2023-02-01T01:38:49;99846.79;;;3.16;81.46
77086;BME280;66014;53.134;18.006;2023-02-01T01:41:24;99839.94;;;3.18;81.41
77086;BME280;66014;53.134;18.006;2023-02-01T01:43:56;99839.37;;;3.20;81.34
77086;BME280;66014;53.134;18.006;2023-02-01T01:46:29;99840.14;;;3.23;81.22
77086;BME280;66014;53.134;18.006;2023-02-01T01:51:28;99843.94;;;3.27;81.14
77086;BME280;66014;53.134;18.006;2023-02-01T01:54:18;99838.69;;;3.29;81.00
77086;BME280;66014;53.134;18.006;2023-02-01T01:56:52;99840.58;;;3.29;80.77
77086;BME280;66014;53.134;18.006;2023-02-01T01:59:22;99840.28;;;3.30;80.71
77086;BME280;66014;53.134;18.006;2023-02-01T02:01:53;99831.02;;;3.32;80.66
77086;BME280;66014;53.134;18.006;2023-02-01T02:04:20;99831.76;;;3.33;80.40
77086;BME280;66014;53.134;18.006;2023-02-01T02:09:21;99832.96;;;3.37;80.45
77086;BME280;66014;53.134;18.006;2023-02-01T02:11:48;99832.27;;;3.38;80.22
77086;BME280;66014;53.134;18.006;2023-02-01T02:14:17;99829.63;;;3.40;79.91
77086;BME280;66014;53.134;18.006;2023-02-01T02:20:04;99835.16;;;3.45;79.45
77086;BME280;66014;53.134;18.006;2023-02-01T02:33:59;99835.52;;;3.48;78.09
77086;BME280;66014;53.134;18.006;2023-02-01T02:36:39;99837.56;;;3.48;78.11
77086;BME280;66014;53.134;18.006;2023-02-01T02:39:21;99839.95;;;3.49;78.31
77086;BME280;66014;53.134;18.006;2023-02-01T02:41:59;99842.37;;;3.50;78.02
77086;BME280;66014;53.134;18.006;2023-02-01T02:45:17;99836.13;;;3.51;77.60
77086;BME280;66014;53.134;18.006;2023-02-01T02:48:13;99841.09;;;3.52;77.13
77086;BME280;66014;53.134;18.006;2023-02-01T02:56:39;99844.88;;;3.59;76.50
77086;BME280;66014;53.134;18.006;2023-02-01T02:59:27;99842.32;;;3.60;76.47
77086;BME280;66014;53.134;18.006;2023-02-01T03:02:14;99845.80;;;3.60;75.91
77086;BME280;66014;53.134;18.006;2023-02-01T03:05:00;99846.95;;;3.61;75.74
77086;BME280;66014;53.134;18.006;2023-02-01T03:07:49;99847.03;;;3.62;76.03
77086;BME280;66014;53.134;18.006;2023-02-01T03:10:47;99846.08;;;3.63;75.27
77086;BME280;66014;53.134;18.006;2023-02-01T03:18:49;99842.14;;;3.64;74.77
77086;BME280;66014;53.134;18.006;2023-02-01T03:21:25;99840.42;;;3.65;74.86
77086;BME280;66014;53.134;18.006;2023-02-01T03:23:56;99843.21;;;3.65;75.06
77086;BME280;66014;53.134;18.006;2023-02-01T03:26:26;99842.29;;;3.66;75.23
77086;BME280;66014;53.134;18.006;2023-02-01T03:28:59;99837.48;;;3.66;75.16
77086;BME280;66014;53.134;18.006;2023-02-01T03:31:28;99840.27;;;3.67;74.63
77086;BME280;66014;53.134;18.006;2023-02-01T03:33:56;99832.58;;;3.68;74.14
77086;BME280;66014;53.134;18.006;2023-02-01T03:36:26;99835.38;;;3.68;74.50
77086;BME280;66014;53.134;18.006;2023-02-01T03:39:15;99838.20;;;3.68;74.88
77086;BME280;66014;53.134;18.006;2023-02-01T03:41:50;99839.71;;;3.67;75.26
77086;BME280;66014;53.134;18.006;2023-02-01T03:44:24;99834.48;;;3.66;75.16
77086;BME280;66014;53.134;18.006;2023-02-01T03:47:18;99839.27;;;3.66;74.96
77086;BME280;66014;53.134;18.006;2023-02-01T03:49:45;99832.69;;;3.67;74.49
77086;BME280;66014;53.134;18.006;2023-02-01T03:52:17;99837.44;;;3.67;74.69
77086;BME280;66014;53.134;18.006;2023-02-01T03:54:44;99838.31;;;3.67;74.44
77086;BME280;66014;53.134;18.006;2023-02-01T03:57:14;99833.92;;;3.67;74.67
77086;BME280;66014;53.134;18.006;2023-02-01T03:59:44;99835.48;;;3.67;74.44
77086;BME280;66014;53.134;18.006;2023-02-01T04:02:11;99828.63;;;3.68;74.55
77086;BME280;66014;53.134;18.006;2023-02-01T04:04:38;99825.21;;;3.66;74.56
77086;BME280;66014;53.134;18.006;2023-02-01T04:07:04;99823.83;;;3.64;74.70
77086;BME280;66014;53.134;18.006;2023-02-01T04:09:31;99823.52;;;3.62;74.77
77086;BME280;66014;53.134;18.006;2023-02-01T04:12:00;99830.20;;;3.62;74.66
77086;BME280;66014;53.134;18.006;2023-02-01T04:14:26;99831.83;;;3.64;74.91
77086;BME280;66014;53.134;18.006;2023-02-01T04:16:54;99832.55;;;3.65;74.97
77086;BME280;66014;53.134;18.006;2023-02-01T04:19:21;99822.31;;;3.64;75.07
77086;BME280;66014;53.134;18.006;2023-02-01T04:21:47;99817.19;;;3.62;74.85
77086;BME280;66014;53.134;18.006;2023-02-01T04:24:14;99813.70;;;3.61;75.21
77086;BME280;66014;53.134;18.006;2023-02-01T04:26:40;99812.11;;;3.59;75.29
77086;BME280;66014;53.134;18.006;2023-02-01T04:29:09;99814.30;;;3.58;75.37
77086;BME280;66014;53.134;18.006;2023-02-01T04:31:36;99820.95;;;3.58;75.22
77086;BME280;66014;53.134;18.006;2023-02-01T04:34:02;99819.52;;;3.60;75.56
77086;BME280;66014;53.134;18.006;2023-02-01T04:36:29;99820.31;;;3.61;75.72
77086;BME280;66014;53.134;18.006;2023-02-01T04:38:55;99820.48;;;3.61;75.97
77086;BME280;66014;53.134;18.006;2023-02-01T04:41:22;99824.23;;;3.60;76.51
77086;BME280;66014;53.134;18.006;2023-02-01T04:43:50;99823.30;;;3.59;76.30
77086;BME280;66014;53.134;18.006;2023-02-01T04:46:17;99818.91;;;3.58;76.56
77086;BME280;66014;53.134;18.006;2023-02-01T04:48:44;99815.19;;;3.56;76.56
77086;BME280;66014;53.134;18.006;2023-02-01T04:51:11;99810.45;;;3.55;76.77
77086;BME280;66014;53.134;18.006;2023-02-01T04:53:38;99818.45;;;3.54;76.50
77086;BME280;66014;53.134;18.006;2023-02-01T04:56:05;99816.29;;;3.54;76.64
77086;BME280;66014;53.134;18.006;2023-02-01T04:58:32;99811.95;;;3.55;76.49
77086;BME280;66014;53.134;18.006;2023-02-01T05:00:59;99819.66;;;3.57;76.43
77086;BME280;66014;53.134;18.006;2023-02-01T05:03:32;99820.66;;;3.59;76.22
77086;BME280;66014;53.134;18.006;2023-02-01T05:05:59;99819.95;;;3.61;76.10
77086;BME280;66014;53.134;18.006;2023-02-01T05:08:28;99816.55;;;3.63;75.89
77086;BME280;66014;53.134;18.006;2023-02-01T05:10:56;99816.34;;;3.66;75.88
77086;BME280;66014;53.134;18.006;2023-02-01T05:13:24;99815.27;;;3.68;75.78
77086;BME280;66014;53.134;18.006;2023-02-01T05:16:09;99814.65;;;3.70;75.59
77086;BME280;66014;53.134;18.006;2023-02-01T05:18:36;99811.52;;;3.72;75.46
77086;BME280;66014;53.134;18.006;2023-02-01T05:21:03;99802.91;;;3.73;75.01
77086;BME280;66014;53.134;18.006;2023-02-01T05:23:30;99797.50;;;3.75;75.14
77086;BME280;66014;53.134;18.006;2023-02-01T05:26:02;99795.33;;;3.76;75.25
77086;BME280;66014;53.134;18.006;2023-02-01T05:28:28;99785.92;;;3.77;75.01
77086;BME280;66014;53.134;18.006;2023-02-01T05:30:55;99796.04;;;3.77;74.73
77086;BME280;66014;53.134;18.006;2023-02-01T05:33:22;99795.93;;;3.76;75.09
77086;BME280;66014;53.134;18.006;2023-02-01T05:35:48;99790.35;;;3.74;75.30
77086;BME280;66014;53.134;18.006;2023-02-01T05:38:17;99791.84;;;3.72;75.07
77086;BME280;66014;53.134;18.006;2023-02-01T05:40:45;99792.15;;;3.69;75.37
77086;BME280;66014;53.134;18.006;2023-02-01T05:43:23;99796.60;;;3.66;75.61
77086;BME280;66014;53.134;18.006;2023-02-01T05:45:52;99798.48;;;3.63;75.82
77086;BME280;66014;53.134;18.006;2023-02-01T05:48:19;99802.91;;;3.60;76.15
77086;BME280;66014;53.134;18.006;2023-02-01T05:50:46;99798.25;;;3.57;76.22
77086;BME280;66014;53.134;18.006;2023-02-01T05:53:13;99797.56;;;3.56;76.35
77086;BME280;66014;53.134;18.006;2023-02-01T05:55:42;99815.73;;;3.55;76.37
77086;BME280;66014;53.134;18.006;2023-02-01T05:58:11;99823.37;;;3.55;76.34
77086;BME280;66014;53.134;18.006;2023-02-01T06:00:38;99827.42;;;3.57;76.55
77086;BME280;66014;53.134;18.006;2023-02-01T06:03:09;99830.83;;;3.60;76.75
77086;BME280;66014;53.134;18.006;2023-02-01T06:05:36;99828.73;;;3.61;76.49
77086;BME280;66014;53.134;18.006;2023-02-01T06:08:03;99828.48;;;3.64;76.60
77086;BME280;66014;53.134;18.006;2023-02-01T06:10:30;99829.80;;;3.66;76.46
77086;BME280;66014;53.134;18.006;2023-02-01T06:12:57;99827.70;;;3.68;76.38
77086;BME280;66014;53.134;18.006;2023-02-01T06:15:23;99826.95;;;3.70;76.22
77086;BME280;66014;53.134;18.006;2023-02-01T06:17:51;99821.17;;;3.70;76.19
77086;BME280;66014;53.134;18.006;2023-02-01T06:20:18;99827.79;;;3.70;76.35
77086;BME280;66014;53.134;18.006;2023-02-01T06:22:45;99829.23;;;3.68;76.27
77086;BME280;66014;53.134;18.006;2023-02-01T06:25:12;99827.31;;;3.68;76.27
77086;BME280;66014;53.134;18.006;2023-02-01T06:27:39;99829.61;;;3.68;76.22
77086;BME280;66014;53.134;18.006;2023-02-01T06:30:06;99829.73;;;3.69;75.91
77086;BME280;66014;53.134;18.006;2023-02-01T06:32:36;99829.70;;;3.69;76.03
77086;BME280;66014;53.134;18.006;2023-02-01T06:35:03;99833.00;;;3.69;76.07
77086;BME280;66014;53.134;18.006;2023-02-01T06:37:33;99834.91;;;3.69;75.82
77086;BME280;66014;53.134;18.006;2023-02-01T06:40:02;99826.70;;;3.71;75.78
77086;BME280;66014;53.134;18.006;2023-02-01T06:42:31;99830.77;;;3.72;75.82
77086;BME280;66014;53.134;18.006;2023-02-01T06:44:58;99825.24;;;3.73;75.69
77086;BME280;66014;53.134;18.006;2023-02-01T06:47:24;99820.24;;;3.74;75.59
77086;BME280;66014;53.134;18.006;2023-02-01T06:49:55;99827.06;;;3.74;74.98
77086;BME280;66014;53.134;18.006;2023-02-01T06:52:46;99823.21;;;3.76;75.07
77086;BME280;66014;53.134;18.006;2023-02-01T06:55:17;99827.17;;;3.76;75.08
77086;BME280;66014;53.134;18.006;2023-02-01T06:57:47;99832.98;;;3.78;74.88
77086;BME280;66014;53.134;18.006;2023-02-01T07:00:27;99831.77;;;3.79;75.06
77086;BME280;66014;53.134;18.006;2023-02-01T07:03:19;99826.55;;;3.81;74.46
77086;BME280;66014;53.134;18.006;2023-02-01T07:06:00;99829.39;;;3.82;74.65
77086;BME280;66014;53.134;18.006;2023-02-01T07:08:58;99827.55;;;3.83;74.31
77086;BME280;66014;53.134;18.006;2023-02-01T07:11:36;99836.52;;;3.85;74.14
77086;BME280;66014;53.134;18.006;2023-02-01T07:14:14;99830.43;;;3.86;74.47
77086;BME280;66014;53.134;18.006;2023-02-01T07:16:49;99833.73;;;3.88;74.00
77086;BME280;66014;53.134;18.006;2023-02-01T07:19:18;99831.52;;;3.89;74.18
77086;BME280;66014;53.134;18.006;2023-02-01T07:21:46;99822.44;;;3.90;74.12
77086;BME280;66014;53.134;18.006;2023-02-01T07:24:15;99820.43;;;3.91;73.77
77086;BME280;66014;53.134;18.006;2023-02-01T07:26:43;99821.27;;;3.91;73.51
77086;BME280;66014;53.134;18.006;2023-02-01T07:29:28;99821.15;;;3.97;73.40
77086;BME280;66014;53.134;18.006;2023-02-01T07:31:55;99825.82;;;4.05;73.64
77086;BME280;66014;53.134;18.006;2023-02-01T07:34:21;99829.06;;;4.13;73.14
77086;BME280;66014;53.134;18.006;2023-02-01T07:36:51;99832.08;;;4.16;72.97
77086;BME280;66014;53.134;18.006;2023-02-01T07:39:17;99828.78;;;4.17;72.97
77086;BME280;66014;53.134;18.006;2023-02-01T07:41:45;99831.43;;;4.20;73.22
77086;BME280;66014;53.134;18.006;2023-02-01T07:44:12;99826.30;;;4.26;72.68
77086;BME280;66014;53.134;18.006;2023-02-01T07:46:38;99826.23;;;4.34;72.61
77086;BME280;66014;53.134;18.006;2023-02-01T07:49:06;99826.06;;;4.48;72.03
77086;BME280;66014;53.134;18.006;2023-02-01T07:51:32;99822.70;;;4.65;71.05
77086;BME280;66014;53.134;18.006;2023-02-01T07:53:59;99824.05;;;4.83;71.38
77086;BME280;66014;53.134;18.006;2023-02-01T07:56:25;99826.41;;;5.02;70.88
77086;BME280;66014;53.134;18.006;2023-02-01T07:58:53;99833.43;;;5.20;70.20
77086;BME280;66014;53.134;18.006;2023-02-01T08:01:28;99831.34;;;5.33;70.30
77086;BME280;66014;53.134;18.006;2023-02-01T08:04:01;99829.63;;;5.37;69.40
77086;BME280;66014;53.134;18.006;2023-02-01T08:06:31;99837.98;;;5.25;69.80
77086;BME280;66014;53.134;18.006;2023-02-01T08:08:58;99838.38;;;5.17;70.27
77086;BME280;66014;53.134;18.006;2023-02-01T08:11:25;99837.61;;;5.11;70.30
77086;BME280;66014;53.134;18.006;2023-02-01T08:13:52;99845.42;;;5.04;70.50
77086;BME280;66014;53.134;18.006;2023-02-01T08:16:20;99845.67;;;4.98;70.75
77086;BME280;66014;53.134;18.006;2023-02-01T08:18:47;99847.88;;;4.94;70.84
77086;BME280;66014;53.134;18.006;2023-02-01T08:21:17;99854.40;;;4.92;70.94
77086;BME280;66014;53.134;18.006;2023-02-01T08:23:44;99857.59;;;4.92;71.23
77086;BME280;66014;53.134;18.006;2023-02-01T08:26:17;99861.07;;;4.87;71.21
77086;BME280;66014;53.134;18.006;2023-02-01T08:28:47;99863.46;;;4.85;71.51
77086;BME280;66014;53.134;18.006;2023-02-01T08:31:17;99867.16;;;4.86;71.97
77086;BME280;66014;53.134;18.006;2023-02-01T08:33:49;99869.12;;;4.89;71.87
77086;BME280;66014;53.134;18.006;2023-02-01T08:36:16;99868.64;;;4.92;71.85
77086;BME280;66014;53.134;18.006;2023-02-01T08:38:45;99869.48;;;4.96;71.87
77086;BME280;66014;53.134;18.006;2023-02-01T08:41:14;99866.04;;;4.96;71.87
77086;BME280;66014;53.134;18.006;2023-02-01T08:43:42;99873.41;;;4.98;71.61
77086;BME280;66014;53.134;18.006;2023-02-01T08:46:11;99878.92;;;4.95;71.59
77086;BME280;66014;53.134;18.006;2023-02-01T08:48:38;99878.22;;;4.90;71.77
77086;BME280;66014;53.134;18.006;2023-02-01T08:51:08;99872.67;;;4.86;72.27
77086;BME280;66014;53.134;18.006;2023-02-01T08:53:37;99881.55;;;4.81;72.20
77086;BME280;66014;53.134;18.006;2023-02-01T08:56:05;99877.33;;;4.81;72.85
77086;BME280;66014;53.134;18.006;2023-02-01T08:58:33;99879.08;;;4.83;72.90
77086;BME280;66014;53.134;18.006;2023-02-01T09:01:05;99874.89;;;4.90;72.96
77086;BME280;66014;53.134;18.006;2023-02-01T09:03:31;99878.12;;;5.12;73.13
77086;BME280;66014;53.134;18.006;2023-02-01T09:06:05;99880.52;;;5.21;72.49
77086;BME280;66014;53.134;18.006;2023-02-01T09:08:33;99875.63;;;5.22;72.05
77086;BME280;66014;53.134;18.006;2023-02-01T09:11:01;99875.75;;;5.13;72.20
77086;BME280;66014;53.134;18.006;2023-02-01T09:13:28;99877.74;;;5.07;72.78
77086;BME280;66014;53.134;18.006;2023-02-01T09:15:55;99877.11;;;5.02;73.22
77086;BME280;66014;53.134;18.006;2023-02-01T09:18:23;99877.17;;;4.91;73.86
77086;BME280;66014;53.134;18.006;2023-02-01T09:20:49;99879.86;;;4.77;74.38
77086;BME280;66014;53.134;18.006;2023-02-01T09:23:16;99873.95;;;4.70;74.78
77086;BME280;66014;53.134;18.006;2023-02-01T09:25:43;99867.33;;;4.71;75.16
77086;BME280;66014;53.134;18.006;2023-02-01T09:28:09;99868.52;;;4.70;75.22
77086;BME280;66014;53.134;18.006;2023-02-01T09:30:37;99864.20;;;4.59;75.41
77086;BME280;66014;53.134;18.006;2023-02-01T09:33:04;99856.79;;;4.53;75.75
77086;BME280;66014;53.134;18.006;2023-02-01T09:35:30;99854.60;;;4.65;75.68
77086;BME280;66014;53.134;18.006;2023-02-01T09:37:57;99853.02;;;4.84;74.86
77086;BME280;66014;53.134;18.006;2023-02-01T09:40:24;99849.86;;;4.95;74.85
77086;BME280;66014;53.134;18.006;2023-02-01T09:48:13;99839.09;;;5.17;74.20
77086;BME280;66014;53.134;18.006;2023-02-01T09:50:52;99833.60;;;5.30;73.81
77086;BME280;66014;53.134;18.006;2023-02-01T09:53:27;99838.21;;;5.31;73.68
77086;BME280;66014;53.134;18.006;2023-02-01T09:56:06;99837.10;;;5.25;73.72
77086;BME280;66014;53.134;18.006;2023-02-01T10:01:25;99846.28;;;5.20;73.51
77086;BME280;66014;53.134;18.006;2023-02-01T10:04:02;99836.33;;;5.20;73.39
77086;BME280;66014;53.134;18.006;2023-02-01T10:14:51;99824.36;;;6.06;71.79
77086;BME280;66014;53.134;18.006;2023-02-01T10:20:26;99823.26;;;6.42;70.60
77086;BME280;66014;53.134;18.006;2023-02-01T10:28:04;99818.45;;;6.67;68.72
77086;BME280;66014;53.134;18.006;2023-02-01T10:30:39;99809.44;;;6.69;68.44
77086;BME280;66014;53.134;18.006;2023-02-01T10:33:17;99807.15;;;6.63;69.03
77086;BME280;66014;53.134;18.006;2023-02-01T10:35:53;99812.69;;;6.51;69.17
77086;BME280;66014;53.134;18.006;2023-02-01T10:38:27;99815.09;;;6.54;69.61
77086;BME280;66014;53.134;18.006;2023-02-01T10:40:59;99823.89;;;6.51;68.39
77086;BME280;66014;53.134;18.006;2023-02-01T10:43:31;99823.83;;;6.43;68.65
77086;BME280;66014;53.134;18.006;2023-02-01T10:45:58;99824.41;;;6.23;69.15
77086;BME280;66014;53.134;18.006;2023-02-01T10:48:25;99821.95;;;6.04;69.77
77086;BME280;66014;53.134;18.006;2023-02-01T10:50:57;99816.99;;;5.95;70.57
77086;BME280;66014;53.134;18.006;2023-02-01T10:53:31;99815.15;;;5.87;70.32
77086;BME280;66014;53.134;18.006;2023-02-01T10:56:12;99816.30;;;5.76;70.52
77086;BME280;66014;53.134;18.006;2023-02-01T10:58:45;99812.50;;;5.67;70.65
77086;BME280;66014;53.134;18.006;2023-02-01T11:04:19;99808.04;;;5.78;71.26
77086;BME280;66014;53.134;18.006;2023-02-01T11:06:53;99807.66;;;5.80;70.89
77086;BME280;66014;53.134;18.006;2023-02-01T11:09:32;99805.75;;;5.72;70.93
77086;BME280;66014;53.134;18.006;2023-02-01T11:12:00;99809.30;;;5.66;70.99
77086;BME280;66014;53.134;18.006;2023-02-01T11:14:39;99805.96;;;5.61;71.09
77086;BME280;66014;53.134;18.006;2023-02-01T11:19:45;99803.44;;;5.52;71.89
77086;BME280;66014;53.134;18.006;2023-02-01T11:22:13;99805.52;;;5.55;71.95
77086;BME280;66014;53.134;18.006;2023-02-01T11:24:44;99803.89;;;5.57;71.91
77086;BME280;66014;53.134;18.006;2023-02-01T11:27:16;99799.02;;;5.57;71.98
77086;BME280;66014;53.134;18.006;2023-02-01T11:29:47;99791.71;;;5.59;71.64
77086;BME280;66014;53.134;18.006;2023-02-01T11:32:19;99788.02;;;5.68;71.65
77086;BME280;66014;53.134;18.006;2023-02-01T11:34:52;99782.97;;;5.74;71.01
77086;BME280;66014;53.134;18.006;2023-02-01T11:37:26;99785.86;;;5.75;71.45
77086;BME280;66014;53.134;18.006;2023-02-01T11:43:08;99787.54;;;5.77;71.31
77086;BME280;66014;53.134;18.006;2023-02-01T11:45:35;99788.04;;;5.81;71.74
77086;BME280;66014;53.134;18.006;2023-02-01T11:48:18;99794.34;;;5.85;71.41
77086;BME280;66014;53.134;18.006;2023-02-01T11:56:45;99783.64;;;6.36;70.15
77086;BME280;66014;53.134;18.006;2023-02-01T12:02:36;99777.70;;;6.35;68.71
77086;BME280;66014;53.134;18.006;2023-02-01T12:05:16;99774.98;;;6.36;69.07
77086;BME280;66014;53.134;18.006;2023-02-01T12:07:51;99771.98;;;6.39;68.53
77086;BME280;66014;53.134;18.006;2023-02-01T12:10:33;99774.70;;;6.34;69.30
77086;BME280;66014;53.134;18.006;2023-02-01T12:13:09;99773.02;;;6.35;69.17
77086;BME280;66014;53.134;18.006;2023-02-01T12:22:00;99772.14;;;6.36;69.06
77086;BME280;66014;53.134;18.006;2023-02-01T12:36:39;99763.17;;;5.92;69.64
77086;BME280;66014;53.134;18.006;2023-02-01T12:39:29;99767.46;;;5.95;69.70
77086;BME280;66014;53.134;18.006;2023-02-01T12:42:28;99763.33;;;5.96;69.62
77086;BME280;66014;53.134;18.006;2023-02-01T12:47:47;99761.83;;;5.90;69.72
77086;BME280;66014;53.134;18.006;2023-02-01T12:50:22;99758.99;;;5.81;69.18
77086;BME280;66014;53.134;18.006;2023-02-01T12:52:54;99765.63;;;5.72;69.98
77086;BME280;66014;53.134;18.006;2023-02-01T12:55:41;99767.48;;;5.66;70.07
77086;BME280;66014;53.134;18.006;2023-02-01T13:03:35;99768.62;;;5.61;70.66
77086;BME280;66014;53.134;18.006;2023-02-01T13:06:27;99773.49;;;5.58;70.59
77086;BME280;66014;53.134;18.006;2023-02-01T13:09:15;99774.88;;;5.57;70.82
77086;BME280;66014;53.134;18.006;2023-02-01T13:11:47;99771.59;;;5.56;70.67
77086;BME280;66014;53.134;18.006;2023-02-01T13:17:10;99773.93;;;5.56;70.81
77086;BME280;66014;53.134;18.006;2023-02-01T13:22:39;99773.54;;;5.52;70.69
77086;BME280;66014;53.134;18.006;2023-02-01T13:27:40;99783.02;;;5.45;70.99
77086;BME280;66014;53.134;18.006;2023-02-01T13:30:30;99785.09;;;5.42;70.99
77086;BME280;66014;53.134;18.006;2023-02-01T13:41:41;99788.52;;;5.48;71.29
77086;BME280;66014;53.134;18.006;2023-02-01T13:44:38;99788.81;;;5.48;71.17
77086;BME280;66014;53.134;18.006;2023-02-01T13:47:22;99785.27;;;5.49;71.39
77086;BME280;66014;53.134;18.006;2023-02-01T13:49:52;99785.19;;;5.46;71.20
77086;BME280;66014;53.134;18.006;2023-02-01T13:52:39;99779.64;;;5.41;71.37
77086;BME280;66014;53.134;18.006;2023-02-01T13:55:23;99786.51;;;5.38;71.48
77086;BME280;66014;53.134;18.006;2023-02-01T13:58:02;99791.67;;;5.35;71.69
77086;BME280;66014;53.134;18.006;2023-02-01T14:00:38;99790.06;;;5.34;72.02
77086;BME280;66014;53.134;18.006;2023-02-01T14:10:48;99798.54;;;5.23;71.64
77086;BME280;66014;53.134;18.006;2023-02-01T14:13:37;99796.73;;;5.18;71.77
77086;BME280;66014;53.134;18.006;2023-02-01T14:21:31;99788.58;;;5.12;71.93
77086;BME280;66014;53.134;18.006;2023-02-01T14:24:16;99789.16;;;5.12;72.13
77086;BME280;66014;53.134;18.006;2023-02-01T14:26:51;99795.20;;;5.11;72.06
77086;BME280;66014;53.134;18.006;2023-02-01T14:32:02;99795.90;;;5.13;71.99
77086;BME280;66014;53.134;18.006;2023-02-01T14:50:27;99797.09;;;5.13;71.54
77086;BME280;66014;53.134;18.006;2023-02-01T14:53:16;99801.47;;;5.13;71.53
77086;BME280;66014;53.134;18.006;2023-02-01T15:01:25;99799.59;;;5.13;71.41
77086;BME280;66014;53.134;18.006;2023-02-01T15:04:14;99796.84;;;5.15;71.11
77086;BME280;66014;53.134;18.006;2023-02-01T15:06:50;99793.45;;;5.14;71.03
77086;BME280;66014;53.134;18.006;2023-02-01T15:09:33;99795.25;;;5.12;71.02
77086;BME280;66014;53.134;18.006;2023-02-01T15:12:16;99799.71;;;5.10;70.85
77086;BME280;66014;53.134;18.006;2023-02-01T15:15:18;99800.07;;;5.08;71.08
77086;BME280;66014;53.134;18.006;2023-02-01T15:17:58;99796.55;;;5.09;71.20
77086;BME280;66014;53.134;18.006;2023-02-01T15:20:29;99801.39;;;5.09;71.36
77086;BME280;66014;53.134;18.006;2023-02-01T15:23:00;99799.41;;;5.06;71.58
77086;BME280;66014;53.134;18.006;2023-02-01T15:25:37;99806.59;;;5.03;71.71
77086;BME280;66014;53.134;18.006;2023-02-01T15:28:08;99805.93;;;5.00;72.05
77086;BME280;66014;53.134;18.006;2023-02-01T15:30:38;99814.20;;;4.96;72.01
77086;BME280;66014;53.134;18.006;2023-02-01T15:33:15;99821.27;;;4.93;71.96
77086;BME280;66014;53.134;18.006;2023-02-01T15:41:16;99819.85;;;4.78;72.86
77086;BME280;66014;53.134;18.006;2023-02-01T15:44:02;99825.59;;;4.70;72.97
77086;BME280;66014;53.134;18.006;2023-02-01T15:46:36;99823.80;;;4.64;73.08
77086;BME280;66014;53.134;18.006;2023-02-01T15:49:05;99830.43;;;4.58;73.37
77086;BME280;66014;53.134;18.006;2023-02-01T15:51:44;99828.18;;;4.51;73.29
77086;BME280;66014;53.134;18.006;2023-02-01T15:54:17;99824.25;;;4.47;73.62
77086;BME280;66014;53.134;18.006;2023-02-01T15:56:51;99829.77;;;4.44;73.85
77086;BME280;66014;53.134;18.006;2023-02-01T15:59:37;99834.27;;;4.40;73.91
77086;BME280;66014;53.134;18.006;2023-02-01T16:02:34;99843.41;;;4.36;74.06
77086;BME280;66014;53.134;18.006;2023-02-01T16:05:03;99841.32;;;4.33;74.04